Time;durP1;ratioP1;P1;durP2;ratioP2;P2;SDS_P1;SDS_P2;PMS_P1;PMS_P2;Temp;Humidity;BMP_temperature;BMP_pressure;BME280_temperature;BME280_humidity;BME280_pressure;Samples;Min_cycle;Max_cycle;Signal;HPM_P1;HPM_P2
2023/06/08 00:01:20;;;;;;;12.07;9.07;;;20.30;67.00;;;;;;5096255;28;20483;-79
2023/06/08 00:03:49;;;;;;;11.20;9.13;;;20.20;67.10;;;;;;5091019;28;20478;-80
2023/06/08 00:06:20;;;;;;;12.17;9.57;;;20.20;67.30;;;;;;5099213;28;20448;-80
2023/06/08 00:08:48;;;;;;;11.93;9.50;;;20.20;67.40;;;;;;5087667;28;20467;-80
2023/06/08 00:11:16;;;;;;;12.37;9.40;;;20.10;67.30;;;;;;5101921;28;21183;-80
2023/06/08 00:13:44;;;;;;;13.70;9.30;;;20.00;67.30;;;;;;5104234;28;20491;-78
2023/06/08 00:16:14;;;;;;;13.43;9.90;;;20.00;67.40;;;;;;5107353;28;20937;-80
2023/06/08 00:18:44;;;;;;;12.13;8.87;;;20.00;67.40;;;;;;5105794;28;20897;-80
2023/06/08 00:21:12;;;;;;;12.87;8.97;;;20.00;67.40;;;;;;5084943;28;20491;-79
2023/06/08 00:23:40;;;;;;;11.60;9.50;;;20.00;67.40;;;;;;5112228;28;20507;-80
2023/06/08 00:26:08;;;;;;;12.53;9.23;;;20.00;67.50;;;;;;5109177;28;20468;-79
2023/06/08 00:28:36;;;;;;;11.73;9.80;;;20.00;67.40;;;;;;5091100;28;20459;-79
2023/06/08 00:31:04;;;;;;;11.73;9.90;;;19.90;67.50;;;;;;5086634;28;20583;-79
2023/06/08 00:33:34;;;;;;;11.10;9.90;;;19.90;67.50;;;;;;5091942;28;20547;-79
2023/06/08 00:36:04;;;;;;;12.60;9.50;;;19.90;67.50;;;;;;5099120;28;20530;-79
2023/06/08 00:38:34;;;;;;;15.63;10.20;;;19.90;67.50;;;;;;5096608;28;20551;-78
2023/06/08 00:41:04;;;;;;;11.73;9.13;;;19.90;67.60;;;;;;5103245;28;20505;-78
2023/06/08 00:43:34;;;;;;;12.67;9.77;;;19.90;67.60;;;;;;5087140;28;20482;-80
2023/06/08 00:46:02;;;;;;;14.33;10.83;;;19.80;67.60;;;;;;5104056;28;20451;-79
2023/06/08 00:48:31;;;;;;;11.50;9.93;;;19.80;67.60;;;;;;5087057;28;20485;-80
2023/06/08 00:51:02;;;;;;;11.20;9.23;;;19.70;67.70;;;;;;5086388;28;20891;-79
2023/06/08 00:53:32;;;;;;;15.40;9.80;;;19.70;67.70;;;;;;5088211;28;20457;-79
2023/06/08 00:56:02;;;;;;;17.70;10.40;;;19.70;67.70;;;;;;5100031;28;20673;-79
2023/06/08 00:58:33;;;;;;;11.37;9.67;;;19.60;67.80;;;;;;5084857;28;20453;-78
2023/06/08 01:01:03;;;;;;;12.57;8.80;;;19.60;67.80;;;;;;5084332;28;20468;-79
2023/06/08 01:03:35;;;;;;;12.10;10.00;;;19.60;67.90;;;;;;5087259;28;20476;-79
2023/06/08 01:06:07;;;;;;;11.50;9.47;;;19.60;67.90;;;;;;5103506;28;21017;-79
2023/06/08 01:08:47;;;;;;;11.77;9.37;;;19.60;67.80;;;;;;5100891;28;20451;-79
2023/06/08 01:11:33;;;;;;;12.43;9.67;;;19.50;68.00;;;;;;5105594;28;20451;-79
2023/06/08 01:14:14;;;;;;;11.60;9.73;;;19.50;68.00;;;;;;5085193;28;20475;-79
2023/06/08 01:16:50;;;;;;;11.70;9.83;;;19.40;68.10;;;;;;5084329;28;20458;-79
2023/06/08 01:19:28;;;;;;;12.57;10.00;;;19.40;68.10;;;;;;5083243;28;20559;-78
2023/06/08 01:22:10;;;;;;;10.33;8.80;;;19.40;68.10;;;;;;5085874;28;20447;-79
2023/06/08 01:24:49;;;;;;;11.53;9.40;;;19.40;68.20;;;;;;5103018;28;20544;-78
2023/06/08 01:27:18;;;;;;;11.60;9.60;;;19.40;68.20;;;;;;5079804;28;20467;-78
2023/06/08 01:29:47;;;;;;;11.57;9.50;;;19.30;68.20;;;;;;5086856;28;20570;-78
2023/06/08 01:32:15;;;;;;;11.07;9.67;;;19.30;68.10;;;;;;5086558;28;20557;-79
2023/06/08 01:34:43;;;;;;;12.20;9.17;;;19.20;68.10;;;;;;5104919;28;20450;-79
2023/06/08 01:37:17;;;;;;;10.70;8.73;;;19.20;68.20;;;;;;5078099;28;20546;-79
2023/06/08 01:39:52;;;;;;;16.13;9.60;;;19.10;68.20;;;;;;5083052;28;20550;-80
2023/06/08 01:42:22;;;;;;;11.50;9.23;;;19.10;68.20;;;;;;5100508;28;20540;-80
2023/06/08 01:44:57;;;;;;;13.20;10.10;;;19.00;68.30;;;;;;5106126;28;20564;-79
2023/06/08 01:47:32;;;;;;;10.60;9.10;;;19.00;68.40;;;;;;5099943;28;20494;-85
2023/06/08 01:50:01;;;;;;;13.30;9.60;;;19.00;68.50;;;;;;5103990;28;20470;-83
2023/06/08 01:52:30;;;;;;;13.57;10.20;;;18.90;68.40;;;;;;5091721;28;20583;-84
2023/06/08 01:54:59;;;;;;;10.57;8.67;;;18.90;68.40;;;;;;5093374;28;20447;-84
2023/06/08 01:57:29;;;;;;;11.67;9.97;;;18.90;68.50;;;;;;5105363;28;20466;-80
2023/06/08 01:59:57;;;;;;;12.70;8.60;;;18.90;68.60;;;;;;5085560;28;20458;-79
2023/06/08 02:02:25;;;;;;;12.33;9.57;;;18.90;68.70;;;;;;5097741;28;20484;-80
2023/06/08 02:04:53;;;;;;;13.10;10.30;;;19.00;68.60;;;;;;5111967;28;20931;-78
2023/06/08 02:07:22;;;;;;;11.37;9.30;;;18.90;68.50;;;;;;5085084;28;21029;-79
2023/06/08 02:09:50;;;;;;;16.10;11.17;;;18.90;68.60;;;;;;5090286;28;20454;-80
2023/06/08 02:12:19;;;;;;;10.53;9.30;;;18.90;68.60;;;;;;5105715;28;20450;-81
2023/06/08 02:14:48;;;;;;;13.37;9.00;;;18.80;68.70;;;;;;5094835;28;20445;-79
2023/06/08 02:17:26;;;;;;;13.60;9.70;;;18.80;68.70;;;;;;5104357;28;20465;-82
2023/06/08 02:19:56;;;;;;;10.47;9.10;;;18.80;68.80;;;;;;5105289;28;20458;-80
2023/06/08 02:22:24;;;;;;;12.37;9.70;;;18.80;68.80;;;;;;5104257;28;21270;-79
2023/06/08 02:24:52;;;;;;;11.23;9.90;;;18.80;68.80;;;;;;5086472;28;20502;-80
2023/06/08 02:27:21;;;;;;;11.57;9.40;;;18.80;68.80;;;;;;5104025;28;21424;-80
2023/06/08 02:29:50;;;;;;;12.50;11.10;;;18.80;68.70;;;;;;5109213;28;20800;-79
2023/06/08 02:32:18;;;;;;;11.90;9.93;;;18.80;68.80;;;;;;5088564;28;21179;-79
2023/06/08 02:34:53;;;;;;;11.40;9.20;;;18.80;68.80;;;;;;5090647;28;20457;-79
2023/06/08 02:37:22;;;;;;;11.27;8.87;;;18.70;68.80;;;;;;5087939;28;20458;-79
2023/06/08 02:39:50;;;;;;;12.50;9.50;;;18.70;68.80;;;;;;5090227;28;20485;-78
2023/06/08 02:42:19;;;;;;;13.77;9.73;;;18.70;68.80;;;;;;5098699;28;20456;-79
2023/06/08 02:44:49;;;;;;;12.53;10.40;;;18.70;68.80;;;;;;5090001;28;20527;-78
2023/06/08 02:47:18;;;;;;;12.40;9.60;;;18.60;68.80;;;;;;5090306;28;21021;-81
2023/06/08 02:49:46;;;;;;;12.60;9.20;;;18.60;68.70;;;;;;5105344;28;20447;-79
2023/06/08 02:52:14;;;;;;;12.00;10.60;;;18.60;68.70;;;;;;5082917;28;20659;-80
2023/06/08 02:54:43;;;;;;;11.00;9.63;;;18.50;68.80;;;;;;5070091;28;20458;-79
2023/06/08 02:57:13;;;;;;;14.77;10.20;;;18.40;68.90;;;;;;5083877;28;20446;-79
2023/06/08 03:00:07;;;;;;;14.93;10.17;;;18.40;68.90;;;;;;5086393;28;20513;-79
2023/06/08 03:02:50;;;;;;;12.07;10.20;;;18.40;69.00;;;;;;5088862;28;21184;-80
2023/06/08 03:05:21;;;;;;;15.00;10.80;;;18.30;69.00;;;;;;5084858;28;20611;-79
2023/06/08 03:07:49;;;;;;;10.93;8.97;;;18.30;69.00;;;;;;5086024;28;21015;-80
2023/06/08 03:10:17;;;;;;;16.40;10.07;;;18.20;69.10;;;;;;5081738;28;20497;-78
2023/06/08 03:12:45;;;;;;;13.00;10.30;;;18.20;69.10;;;;;;5102251;28;20514;-79
2023/06/08 03:15:22;;;;;;;12.30;10.30;;;18.10;69.10;;;;;;5086753;28;20844;-79
2023/06/08 03:17:55;;;;;;;12.43;10.63;;;18.00;69.40;;;;;;5084106;28;20501;-79
2023/06/08 03:20:24;;;;;;;12.87;10.73;;;18.00;69.50;;;;;;5082685;28;21000;-79
2023/06/08 03:23:04;;;;;;;13.17;10.17;;;18.00;69.60;;;;;;5091027;28;20999;-78
2023/06/08 03:25:33;;;;;;;13.17;10.80;;;18.00;69.70;;;;;;5104581;28;20534;-80
2023/06/08 03:28:02;;;;;;;15.73;10.80;;;17.90;69.70;;;;;;5105088;28;20460;-79
2023/06/08 03:30:32;;;;;;;14.30;10.70;;;17.90;69.80;;;;;;5089158;28;20873;-80
2023/06/08 03:33:05;;;;;;;12.23;10.47;;;17.90;69.90;;;;;;5087396;28;20924;-80
2023/06/08 03:35:47;;;;;;;13.50;9.93;;;17.80;70.00;;;;;;5092377;28;20449;-81
2023/06/08 03:38:25;;;;;;;12.37;10.63;;;17.80;70.10;;;;;;5083551;28;20979;-80
2023/06/08 03:40:57;;;;;;;12.87;10.13;;;17.90;70.30;;;;;;5086299;28;20452;-79
2023/06/08 03:43:25;;;;;;;12.70;10.67;;;17.90;70.30;;;;;;5090678;28;20533;-80
2023/06/08 03:45:56;;;;;;;13.43;9.87;;;17.90;70.40;;;;;;5082107;28;20509;-79
2023/06/08 03:48:25;;;;;;;13.10;10.57;;;18.00;70.40;;;;;;5088604;28;20830;-81
2023/06/08 03:50:54;;;;;;;12.63;10.50;;;18.00;70.40;;;;;;5098284;28;20477;-80
2023/06/08 03:53:24;;;;;;;14.73;9.37;;;18.00;70.30;;;;;;5084279;28;21104;-79
2023/06/08 03:55:52;;;;;;;14.30;10.63;;;18.00;70.30;;;;;;5081649;28;20455;-79
2023/06/08 03:58:21;;;;;;;12.37;9.93;;;18.00;70.30;;;;;;5106042;28;20477;-79
2023/06/08 04:00:50;;;;;;;16.47;11.10;;;18.00;70.30;;;;;;5103429;28;20470;-80
2023/06/08 04:03:24;;;;;;;13.60;10.77;;;18.00;70.30;;;;;;5085035;28;20454;-82
2023/06/08 04:05:53;;;;;;;12.10;10.30;;;18.00;70.40;;;;;;5088215;28;20567;-80
2023/06/08 04:08:21;;;;;;;11.53;9.63;;;18.00;70.40;;;;;;5088144;28;20557;-78
2023/06/08 04:10:50;;;;;;;13.40;10.43;;;18.10;70.60;;;;;;5090109;28;21048;-81
2023/06/08 04:13:18;;;;;;;13.13;10.43;;;18.10;70.50;;;;;;5101582;28;20537;-81
2023/06/08 04:15:46;;;;;;;13.37;10.23;;;18.10;70.50;;;;;;5107331;28;20456;-81
2023/06/08 04:18:16;;;;;;;15.10;10.63;;;18.10;70.60;;;;;;5097689;28;20462;-79
2023/06/08 04:20:46;;;;;;;12.80;10.57;;;18.20;70.40;;;;;;5086989;28;20525;-79
2023/06/08 04:23:15;;;;;;;12.80;10.07;;;18.20;70.40;;;;;;5085107;28;20497;-80
2023/06/08 04:25:44;;;;;;;16.47;11.40;;;18.20;70.40;;;;;;5084282;28;20521;-80
2023/06/08 04:28:13;;;;;;;12.17;10.37;;;18.10;70.40;;;;;;5086139;28;20458;-80
2023/06/08 04:30:41;;;;;;;12.00;10.47;;;18.10;70.40;;;;;;5097735;28;20486;-80
2023/06/08 04:33:09;;;;;;;14.33;12.13;;;18.10;70.40;;;;;;5081155;28;20454;-79
2023/06/08 04:35:38;;;;;;;12.80;10.50;;;18.10;70.40;;;;;;5089928;28;20450;-81
2023/06/08 04:38:14;;;;;;;12.47;9.57;;;18.10;70.50;;;;;;5081951;28;20451;-80
2023/06/08 04:40:49;;;;;;;12.53;9.93;;;18.00;70.50;;;;;;5087989;28;20521;-80
2023/06/08 04:43:20;;;;;;;12.47;9.77;;;18.00;70.60;;;;;;5088208;28;20458;-80
2023/06/08 04:45:57;;;;;;;15.07;10.93;;;18.10;70.70;;;;;;5104555;28;20483;-79
2023/06/08 04:48:28;;;;;;;12.17;9.57;;;18.10;70.70;;;;;;5096220;28;20462;-78
2023/06/08 04:50:59;;;;;;;14.77;10.30;;;18.10;70.70;;;;;;5080899;28;21087;-77
2023/06/08 04:53:30;;;;;;;14.80;10.07;;;18.10;70.80;;;;;;5084986;28;20458;-80
2023/06/08 04:55:58;;;;;;;11.90;9.40;;;18.20;70.80;;;;;;5089235;28;20448;-80
2023/06/08 04:58:27;;;;;;;16.57;9.80;;;18.20;70.70;;;;;;5086674;28;20462;-80
2023/06/08 05:00:57;;;;;;;14.93;10.23;;;18.20;70.70;;;;;;5082921;28;20480;-81
2023/06/08 05:03:26;;;;;;;14.50;10.33;;;18.20;70.70;;;;;;5105520;28;20458;-79
2023/06/08 05:05:54;;;;;;;11.40;9.83;;;18.20;70.70;;;;;;5091152;28;20469;-80
2023/06/08 05:08:23;;;;;;;12.50;10.30;;;18.20;70.70;;;;;;5085348;28;20546;-80
2023/06/08 05:10:52;;;;;;;12.30;10.37;;;18.10;70.70;;;;;;5090021;28;20556;-79
2023/06/08 05:13:20;;;;;;;14.10;9.30;;;18.10;70.80;;;;;;5086222;28;20559;-81
2023/06/08 05:15:50;;;;;;;14.50;9.70;;;18.10;70.80;;;;;;5078252;28;20452;-81
2023/06/08 05:18:18;;;;;;;14.37;11.10;;;18.10;70.80;;;;;;5100077;28;21149;-81
2023/06/08 05:20:46;;;;;;;11.70;9.50;;;18.10;70.90;;;;;;5089437;28;21087;-80
2023/06/08 05:23:14;;;;;;;12.43;10.60;;;18.10;70.90;;;;;;5101964;28;20493;-79
2023/06/08 05:25:42;;;;;;;12.90;10.47;;;18.20;71.00;;;;;;5102965;28;20538;-80
2023/06/08 05:28:12;;;;;;;13.97;10.40;;;18.10;71.10;;;;;;5086559;28;20454;-80
2023/06/08 05:30:40;;;;;;;14.03;9.87;;;18.20;71.20;;;;;;5098907;28;20507;-80
2023/06/08 05:33:09;;;;;;;13.07;10.50;;;18.20;71.20;;;;;;5102487;28;20484;-79
2023/06/08 05:35:37;;;;;;;12.27;10.07;;;18.20;71.20;;;;;;5104810;28;20449;-80
2023/06/08 05:38:05;;;;;;;13.20;10.23;;;18.30;71.30;;;;;;5111617;28;20454;-80
2023/06/08 05:40:34;;;;;;;11.17;9.97;;;18.30;71.30;;;;;;5108506;28;20482;-80
2023/06/08 05:43:02;;;;;;;13.43;11.37;;;18.30;71.20;;;;;;5109805;28;20450;-79
2023/06/08 05:45:32;;;;;;;14.80;10.23;;;18.40;71.70;;;;;;5105309;28;20560;-77
2023/06/08 05:48:00;;;;;;;12.67;9.43;;;19.20;72.10;;;;;;5108964;28;20455;-79
2023/06/08 05:50:28;;;;;;;13.43;9.73;;;20.30;70.90;;;;;;5091279;28;20508;-80
2023/06/08 05:52:56;;;;;;;11.50;9.63;;;21.50;69.60;;;;;;5111539;28;20454;-78
2023/06/08 05:55:24;;;;;;;12.30;9.50;;;22.60;68.20;;;;;;5092985;28;20456;-78
2023/06/08 05:57:52;;;;;;;11.77;9.50;;;23.50;67.10;;;;;;5089733;28;20462;-80
2023/06/08 06:00:21;;;;;;;10.93;8.80;;;24.40;66.00;;;;;;5105266;28;20459;-79
2023/06/08 06:02:56;;;;;;;13.93;9.33;;;25.20;64.90;;;;;;5104670;28;20540;-80
2023/06/08 06:05:26;;;;;;;13.97;10.63;;;25.90;63.80;;;;;;5101667;28;20831;-80
2023/06/08 06:07:54;;;;;;;11.40;9.10;;;26.50;62.90;;;;;;5108450;28;20539;-81
2023/06/08 06:10:22;;;;;;;10.37;8.07;;;26.90;62.00;;;;;;5089894;28;20459;-80
2023/06/08 06:12:50;;;;;;;12.60;9.40;;;27.00;61.50;;;;;;5108341;28;20535;-81
2023/06/08 06:15:19;;;;;;;12.30;8.83;;;26.80;61.40;;;;;;5101037;28;20457;-78
2023/06/08 06:17:48;;;;;;;10.90;8.50;;;26.60;61.40;;;;;;5087144;28;20493;-77
2023/06/08 06:20:17;;;;;;;13.50;9.40;;;26.40;61.40;;;;;;5092474;28;20460;-78
2023/06/08 06:22:45;;;;;;;16.10;9.30;;;26.10;61.60;;;;;;5105363;28;20508;-78
2023/06/08 06:25:21;;;;;;;12.50;8.73;;;25.80;61.90;;;;;;5087133;28;20497;-79
2023/06/08 06:27:49;;;;;;;12.47;8.93;;;25.50;62.20;;;;;;5089131;28;20496;-80
2023/06/08 06:30:17;;;;;;;12.27;9.73;;;25.10;62.40;;;;;;5108623;28;20448;-80
2023/06/08 06:32:46;;;;;;;13.20;9.57;;;24.80;62.70;;;;;;5093070;28;20456;-80
2023/06/08 06:35:14;;;;;;;11.50;8.97;;;24.50;63.20;;;;;;5084296;28;20460;-81
2023/06/08 06:37:44;;;;;;;14.37;10.13;;;24.20;63.50;;;;;;5089369;28;20495;-79
2023/06/08 06:40:13;;;;;;;12.83;9.63;;;23.90;64.00;;;;;;5108359;28;20455;-80
2023/06/08 06:42:41;;;;;;;11.63;9.33;;;23.70;64.30;;;;;;5104867;28;20826;-80
2023/06/08 06:45:22;;;;;;;14.00;9.27;;;23.50;64.70;;;;;;5101535;28;20545;-81
2023/06/08 06:47:50;;;;;;;13.77;9.40;;;23.40;64.80;;;;;;5088225;28;20460;-80
2023/06/08 06:50:18;;;;;;;12.13;9.37;;;23.20;65.20;;;;;;5106897;28;20464;-80
2023/06/08 06:52:48;;;;;;;11.27;8.67;;;23.00;65.40;;;;;;5103942;28;20452;-80
2023/06/08 06:55:17;;;;;;;18.10;8.87;;;22.90;65.70;;;;;;5108325;28;20505;-79
2023/06/08 06:57:45;;;;;;;13.67;9.87;;;22.80;65.90;;;;;;5093256;28;20480;-80
2023/06/08 07:00:14;;;;;;;14.27;10.50;;;22.70;66.20;;;;;;5087774;28;20539;-80
2023/06/08 07:02:42;;;;;;;11.43;9.53;;;22.60;66.50;;;;;;5088685;28;20978;-82
2023/06/08 07:05:10;;;;;;;12.73;9.17;;;22.60;66.80;;;;;;5088951;28;20464;-84
2023/06/08 07:07:39;;;;;;;16.20;10.00;;;22.50;67.00;;;;;;5102437;28;20476;-83
2023/06/08 07:10:08;;;;;;;11.77;9.20;;;22.50;67.10;;;;;;5108289;28;20503;-85
2023/06/08 07:12:37;;;;;;;11.17;9.57;;;22.50;67.20;;;;;;5108358;28;20456;-79
2023/06/08 07:15:06;;;;;;;12.60;9.73;;;22.50;67.30;;;;;;5108175;28;20456;-80
2023/06/08 07:17:34;;;;;;;13.63;10.00;;;22.50;67.50;;;;;;5077918;28;20475;-80
2023/06/08 07:20:03;;;;;;;13.03;11.33;;;22.50;67.60;;;;;;5086232;28;20456;-79
2023/06/08 07:22:32;;;;;;;11.03;9.57;;;22.50;67.80;;;;;;5094691;28;20507;-83
2023/06/08 07:25:22;;;;;;;16.00;10.10;;;22.50;67.80;;;;;;5092093;28;20464;-82
2023/06/08 07:28:10;;;;;;;14.93;11.20;;;22.50;67.90;;;;;;5100101;28;20457;-79
2023/06/08 07:30:38;;;;;;;13.93;10.43;;;22.60;67.90;;;;;;5100215;28;20472;-80
2023/06/08 07:33:06;;;;;;;13.37;10.50;;;22.60;67.80;;;;;;5109053;28;20538;-79
2023/06/08 07:35:34;;;;;;;13.27;10.10;;;22.60;67.90;;;;;;5091926;28;21068;-80
2023/06/08 07:38:02;;;;;;;12.63;9.93;;;22.60;68.00;;;;;;5107500;28;20452;-80
2023/06/08 07:40:31;;;;;;;16.07;10.90;;;22.60;68.10;;;;;;5110760;28;20946;-80
2023/06/08 07:42:59;;;;;;;14.87;10.10;;;22.50;68.10;;;;;;5104550;28;20447;-79
2023/06/08 07:45:27;;;;;;;11.73;9.90;;;22.50;68.20;;;;;;5109522;28;20456;-79
2023/06/08 07:47:55;;;;;;;13.90;9.63;;;22.40;68.20;;;;;;5088424;28;20480;-80
2023/06/08 07:50:23;;;;;;;13.10;10.10;;;22.40;68.30;;;;;;5106707;28;20448;-80
2023/06/08 07:52:51;;;;;;;14.00;11.00;;;22.40;68.40;;;;;;5108070;28;20475;-80
2023/06/08 07:55:21;;;;;;;12.60;10.10;;;22.40;68.40;;;;;;5102521;28;20544;-79
2023/06/08 07:57:50;;;;;;;15.17;10.67;;;22.30;68.50;;;;;;5076448;28;20484;-78
2023/06/08 08:00:20;;;;;;;12.73;9.97;;;22.30;68.80;;;;;;5105878;28;20456;-80
2023/06/08 08:02:48;;;;;;;11.67;9.80;;;22.30;68.90;;;;;;5101511;28;20980;-79
2023/06/08 08:05:17;;;;;;;12.57;10.50;;;22.20;69.00;;;;;;5100468;28;20441;-80
2023/06/08 08:07:46;;;;;;;11.60;9.50;;;22.20;69.20;;;;;;5108791;28;20497;-79
2023/06/08 08:10:13;;;;;;;13.67;10.80;;;22.20;69.20;;;;;;5104036;28;20456;-79
2023/06/08 08:12:42;;;;;;;16.00;10.77;;;22.20;69.30;;;;;;5109997;28;20556;-78
2023/06/08 08:15:12;;;;;;;15.37;12.20;;;22.10;69.40;;;;;;5091363;28;20958;-78
2023/06/08 08:17:40;;;;;;;15.87;11.33;;;22.10;69.50;;;;;;5103673;28;20527;-79
2023/06/08 08:20:10;;;;;;;13.03;11.33;;;22.10;69.60;;;;;;5088867;28;20460;-79
2023/06/08 08:22:38;;;;;;;15.80;11.93;;;22.00;69.70;;;;;;5101187;28;20448;-81
2023/06/08 08:25:09;;;;;;;11.67;10.43;;;22.00;69.70;;;;;;5099446;28;20495;-80
2023/06/08 08:27:36;;;;;;;12.50;10.30;;;22.00;69.80;;;;;;5103424;28;20566;-79
2023/06/08 08:30:07;;;;;;;16.10;11.77;;;22.00;69.90;;;;;;5086251;28;20567;-78
2023/06/08 08:32:36;;;;;;;12.83;10.90;;;22.00;69.90;;;;;;5086505;28;20482;-79
2023/06/08 08:35:05;;;;;;;14.33;11.90;;;22.00;70.00;;;;;;5082536;28;20517;-79
2023/06/08 08:37:34;;;;;;;14.97;11.63;;;21.90;70.10;;;;;;5087653;28;20452;-80
2023/06/08 08:40:02;;;;;;;14.67;11.50;;;21.90;70.10;;;;;;5105903;28;20459;-80
2023/06/08 08:42:32;;;;;;;14.17;11.80;;;21.90;70.10;;;;;;5106232;28;20459;-79
2023/06/08 08:45:02;;;;;;;14.87;11.37;;;21.90;70.30;;;;;;5106909;28;20470;-79
2023/06/08 08:47:32;;;;;;;13.63;11.30;;;21.80;70.30;;;;;;5082408;28;20485;-80
2023/06/08 08:50:06;;;;;;;15.70;11.57;;;21.80;70.40;;;;;;5105955;28;20953;-79
2023/06/08 08:52:38;;;;;;;14.43;11.87;;;21.80;70.50;;;;;;5101640;28;20452;-79
2023/06/08 08:55:08;;;;;;;15.60;11.50;;;21.80;70.50;;;;;;5097838;28;20809;-79
2023/06/08 08:57:52;;;;;;;15.30;11.50;;;21.80;70.60;;;;;;5090292;28;20444;-79
2023/06/08 09:00:22;;;;;;;14.60;12.57;;;21.80;70.70;;;;;;5097660;28;20488;-80
2023/06/08 09:02:51;;;;;;;14.80;12.63;;;21.80;70.90;;;;;;5109889;28;20460;-79
2023/06/08 09:05:25;;;;;;;17.80;14.47;;;21.70;71.10;;;;;;5106458;28;20833;-78
2023/06/08 09:07:54;;;;;;;15.93;12.80;;;21.70;71.40;;;;;;5107172;28;20472;-78
2023/06/08 09:10:25;;;;;;;16.13;13.40;;;21.70;71.40;;;;;;5104448;28;20490;-79
2023/06/08 09:12:55;;;;;;;14.00;11.97;;;21.70;71.50;;;;;;5105638;28;21017;-80
2023/06/08 09:15:30;;;;;;;15.60;12.83;;;21.70;71.60;;;;;;5107508;28;21045;-80
2023/06/08 09:18:02;;;;;;;13.33;11.90;;;21.70;71.60;;;;;;5105897;27;22140;-81
2023/06/08 09:20:34;;;;;;;17.03;13.70;;;21.70;71.80;;;;;;5110473;28;20468;-85
2023/06/08 09:23:15;;;;;;;18.40;13.17;;;21.60;72.20;;;;;;5109040;28;20443;-84
2023/06/08 09:25:46;;;;;;;15.60;13.83;;;21.60;72.50;;;;;;5105714;28;20861;-82
2023/06/08 09:28:16;;;;;;;16.67;14.83;;;21.50;72.50;;;;;;5102621;28;20476;-83
2023/06/08 09:30:48;;;;;;;16.00;13.23;;;21.50;72.60;;;;;;5093409;28;20460;-83
2023/06/08 09:33:25;;;;;;;15.70;13.10;;;21.50;72.80;;;;;;5106082;28;20449;-80
2023/06/08 09:36:15;;;;;;;16.30;14.03;;;21.50;73.10;;;;;;5107808;28;20467;-84
2023/06/08 09:38:44;;;;;;;18.60;12.73;;;21.60;73.30;;;;;;5105082;28;20474;-79
2023/06/08 09:41:16;;;;;;;16.30;12.87;;;21.60;73.30;;;;;;5100810;28;20547;-83
2023/06/08 09:43:50;;;;;;;14.80;11.80;;;21.70;73.40;;;;;;5086094;28;20473;-81
2023/06/08 09:46:36;;;;;;;27.67;22.30;;;21.80;73.50;;;;;;5105776;28;20504;-81
2023/06/08 09:49:06;;;;;;;16.50;13.50;;;21.90;73.40;;;;;;5108561;28;20482;-80
2023/06/08 09:51:37;;;;;;;13.83;11.93;;;21.90;73.30;;;;;;5104899;28;20543;-81
2023/06/08 09:54:06;;;;;;;13.53;10.97;;;21.90;73.20;;;;;;5108811;28;20494;-80
2023/06/08 09:56:37;;;;;;;12.23;10.17;;;22.00;73.20;;;;;;5091159;28;20453;-80
2023/06/08 09:59:09;;;;;;;13.17;11.40;;;22.10;73.20;;;;;;5090604;28;20778;-82
2023/06/08 10:01:42;;;;;;;14.53;10.00;;;22.10;73.10;;;;;;5109802;28;20476;-80
2023/06/08 10:04:20;;;;;;;13.37;10.43;;;22.10;72.80;;;;;;5108169;28;20463;-81
2023/06/08 10:06:56;;;;;;;14.17;10.27;;;22.10;72.80;;;;;;5093287;28;20543;-78
2023/06/08 10:09:29;;;;;;;11.73;9.60;;;22.10;72.60;;;;;;5107603;28;20559;-79
2023/06/08 10:12:01;;;;;;;13.20;9.83;;;22.20;72.60;;;;;;5099518;28;20556;-78
2023/06/08 10:14:30;;;;;;;11.57;9.50;;;22.20;72.30;;;;;;5091911;28;21375;-79
2023/06/08 10:16:58;;;;;;;12.77;9.30;;;22.30;72.20;;;;;;5107049;28;20866;-79
2023/06/08 10:19:27;;;;;;;11.83;9.40;;;22.30;72.00;;;;;;5105028;28;20814;-80
2023/06/08 10:21:57;;;;;;;12.47;10.70;;;22.40;71.80;;;;;;5083246;28;20540;-80
2023/06/08 10:24:27;;;;;;;10.43;8.80;;;22.40;71.90;;;;;;5102957;28;20546;-79
2023/06/08 10:27:09;;;;;;;12.37;9.37;;;22.40;71.90;;;;;;5110835;28;20503;-79
2023/06/08 10:29:37;;;;;;;10.90;8.80;;;22.40;71.90;;;;;;5103252;28;20842;-79
2023/06/08 10:32:09;;;;;;;13.77;9.10;;;22.50;71.80;;;;;;5105491;28;20476;-80
2023/06/08 10:34:40;;;;;;;13.10;8.33;;;22.50;71.70;;;;;;5104585;28;20452;-79
2023/06/08 10:37:28;;;;;;;12.77;10.53;;;22.60;71.70;;;;;;5101386;28;20471;-79
2023/06/08 10:39:58;;;;;;;12.80;10.77;;;22.60;71.80;;;;;;5090772;28;20517;-79
2023/06/08 10:42:26;;;;;;;11.70;9.37;;;22.60;71.60;;;;;;5105287;28;20465;-79
2023/06/08 10:44:57;;;;;;;11.80;9.03;;;22.70;71.50;;;;;;5107150;28;20459;-78
2023/06/08 10:47:26;;;;;;;12.40;9.60;;;22.70;71.30;;;;;;5102064;28;20456;-79
2023/06/08 10:50:00;;;;;;;11.43;9.47;;;22.80;71.10;;;;;;5103529;28;20489;-79
2023/06/08 10:52:45;;;;;;;11.73;9.70;;;22.80;70.80;;;;;;5087818;28;20539;-80
2023/06/08 10:55:16;;;;;;;12.33;10.20;;;22.90;70.80;;;;;;5105458;28;20522;-79
2023/06/08 10:57:46;;;;;;;11.30;9.27;;;23.00;70.70;;;;;;5088482;28;20464;-78
2023/06/08 11:00:44;;;;;;;12.13;9.40;;;23.00;70.40;;;;;;5106238;28;21195;-78
2023/06/08 11:03:16;;;;;;;11.20;10.00;;;23.10;70.20;;;;;;5048418;28;20462;-79
2023/06/08 11:05:52;;;;;;;14.73;9.53;;;23.20;70.10;;;;;;5087729;28;20459;-79
2023/06/08 11:08:22;;;;;;;13.73;10.20;;;23.30;70.20;;;;;;5090541;28;20559;-79
2023/06/08 11:10:55;;;;;;;18.50;11.57;;;23.40;70.30;;;;;;5092780;28;20444;-80
2023/06/08 11:13:24;;;;;;;11.63;10.17;;;23.40;70.00;;;;;;5087886;28;20510;-79
2023/06/08 11:15:52;;;;;;;14.50;11.17;;;23.50;69.90;;;;;;5107618;28;20444;-79
2023/06/08 11:18:21;;;;;;;15.43;11.70;;;23.50;69.80;;;;;;5110445;28;20528;-79
2023/06/08 11:20:50;;;;;;;11.23;10.00;;;23.60;69.70;;;;;;5087212;28;20475;-80
2023/06/08 11:23:18;;;;;;;12.40;10.80;;;23.70;69.30;;;;;;5091239;28;21373;-78
2023/06/08 11:25:48;;;;;;;12.20;9.90;;;23.80;69.20;;;;;;5088555;28;20456;-78
2023/06/08 11:28:15;;;;;;;13.17;10.00;;;23.90;68.90;;;;;;5082516;28;20607;-79
2023/06/08 11:30:43;;;;;;;12.03;9.97;;;23.90;68.80;;;;;;5098845;28;20480;-79
2023/06/08 11:33:14;;;;;;;11.47;8.73;;;24.00;68.60;;;;;;5089875;28;20523;-79
2023/06/08 11:35:43;;;;;;;14.20;9.67;;;24.10;68.20;;;;;;5105834;28;20503;-79
2023/06/08 11:38:11;;;;;;;10.00;8.20;;;24.20;68.00;;;;;;5098714;28;20451;-78
2023/06/08 11:40:41;;;;;;;10.60;8.13;;;24.20;67.90;;;;;;5103716;28;20452;-79
2023/06/08 11:43:12;;;;;;;11.53;9.53;;;24.30;67.30;;;;;;5105266;28;20465;-79
2023/06/08 11:45:40;;;;;;;12.13;9.90;;;24.30;67.20;;;;;;5082284;28;20455;-78
2023/06/08 11:48:08;;;;;;;12.30;8.95;;;24.40;67.20;;;;;;5105862;28;20540;-79
2023/06/08 11:50:46;;;;;;;11.00;9.10;;;24.50;67.00;;;;;;5105904;28;20466;-80
2023/06/08 11:53:16;;;;;;;10.97;8.37;;;24.50;66.60;;;;;;5107679;28;20463;-79
2023/06/08 11:55:48;;;;;;;10.97;9.27;;;24.60;66.30;;;;;;5089489;28;20496;-79
2023/06/08 11:58:17;;;;;;;13.07;9.37;;;24.70;66.00;;;;;;5103658;28;20459;-78
2023/06/08 12:00:45;;;;;;;13.57;8.77;;;24.80;65.90;;;;;;5106441;28;20534;-80
2023/06/08 12:03:13;;;;;;;9.97;8.20;;;24.90;65.80;;;;;;5090073;28;20463;-78
2023/06/08 12:05:43;;;;;;;9.50;7.60;;;25.00;65.60;;;;;;5110513;28;20447;-80
2023/06/08 12:08:14;;;;;;;14.07;7.60;;;25.00;64.60;;;;;;5108249;28;20490;-79
2023/06/08 12:10:46;;;;;;;13.47;9.80;;;25.10;64.30;;;;;;5088626;28;20494;-79
2023/06/08 12:13:16;;;;;;;11.90;10.17;;;25.10;64.50;;;;;;5090146;28;20943;-79
2023/06/08 12:15:47;;;;;;;13.40;10.17;;;25.20;64.80;;;;;;5089719;28;20451;-78
2023/06/08 12:18:37;;;;;;;12.73;10.00;;;25.20;65.00;;;;;;5087317;28;20455;-79
2023/06/08 12:21:07;;;;;;;11.40;9.60;;;25.30;64.90;;;;;;5098027;28;20547;-79
2023/06/08 12:23:35;;;;;;;16.17;10.90;;;25.20;64.80;;;;;;5101795;28;20458;-79
2023/06/08 12:26:03;;;;;;;11.90;10.37;;;25.20;65.00;;;;;;5109316;28;21156;-79
2023/06/08 12:28:32;;;;;;;16.37;10.20;;;25.20;65.30;;;;;;5105073;28;20445;-78
2023/06/08 12:31:04;;;;;;;11.87;10.17;;;25.20;65.40;;;;;;5102626;28;20496;-78
2023/06/08 12:33:32;;;;;;;14.20;9.93;;;25.20;65.50;;;;;;5105546;28;21000;-77
2023/06/08 12:36:01;;;;;;;13.27;10.40;;;25.20;65.60;;;;;;5100959;28;20455;-80
2023/06/08 12:38:29;;;;;;;11.30;10.10;;;25.10;65.80;;;;;;5108031;28;21002;-79
2023/06/08 12:40:57;;;;;;;11.40;9.17;;;25.10;66.00;;;;;;5107949;28;20525;-80
2023/06/08 12:43:26;;;;;;;10.30;7.93;;;25.10;66.00;;;;;;5108481;28;20451;-80
2023/06/08 12:45:55;;;;;;;9.87;8.30;;;25.00;65.50;;;;;;5103348;28;20579;-79
2023/06/08 12:48:24;;;;;;;11.83;9.10;;;25.00;65.40;;;;;;5101216;28;20471;-79
2023/06/08 12:50:54;;;;;;;11.60;8.77;;;24.90;65.40;;;;;;5086491;28;20467;-79